Time;durP1;ratioP1;P1;durP2;ratioP2;P2;SDS_P1;SDS_P2;PMS_P1;PMS_P2;Temp;Humidity;BMP_temperature;BMP_pressure;BME280_temperature;BME280_humidity;BME280_pressure;Samples;Min_cycle;Max_cycle;Signal;HPM_P1;HPM_P2
2022/08/23 00:01:12;;;;;;;10.43;4.53;;;19.00;99.90;;;;;;5035988;28;20236;-71
2022/08/23 00:03:38;;;;;;;9.33;4.43;;;18.90;99.90;;;;;;5019234;28;20041;-70
2022/08/23 00:06:05;;;;;;;9.83;4.77;;;18.90;99.90;;;;;;5035992;28;20041;-71
2022/08/23 00:08:31;;;;;;;12.10;5.30;;;18.90;99.90;;;;;;5019211;28;20099;-71
2022/08/23 00:10:57;;;;;;;11.70;5.23;;;18.90;99.90;;;;;;5036051;28;20049;-71
2022/08/23 00:13:23;;;;;;;11.83;4.50;;;18.90;99.90;;;;;;5036024;28;20060;-71
2022/08/23 00:15:49;;;;;;;10.83;4.37;;;18.80;99.90;;;;;;5036401;28;20116;-71
2022/08/23 00:18:17;;;;;;;10.60;4.50;;;18.70;99.90;;;;;;5018518;28;20400;-71
2022/08/23 00:20:43;;;;;;;10.97;4.80;;;18.70;99.90;;;;;;5035834;28;20045;-71
2022/08/23 00:23:09;;;;;;;11.07;5.13;;;18.70;99.90;;;;;;5035779;28;20087;-71
2022/08/23 00:25:35;;;;;;;11.23;5.43;;;18.70;99.90;;;;;;5035661;28;20041;-71
2022/08/23 00:28:01;;;;;;;13.53;5.40;;;18.70;99.90;;;;;;5035802;28;20136;-71
2022/08/23 00:30:27;;;;;;;11.63;5.57;;;18.60;99.90;;;;;;5035637;28;20124;-70
2022/08/23 00:32:54;;;;;;;11.47;5.23;;;18.60;99.90;;;;;;5035916;28;20057;-71
2022/08/23 00:35:20;;;;;;;13.83;5.20;;;18.60;99.90;;;;;;5035679;28;20056;-71
2022/08/23 00:37:46;;;;;;;12.73;5.40;;;18.60;99.90;;;;;;5034384;28;20083;-71
2022/08/23 00:40:16;;;;;;;12.73;5.57;;;18.60;99.90;;;;;;5035488;28;20111;-71
2022/08/23 00:48:44;;;;;;;14.70;4.83;;;18.50;99.90;;;;;;5035426;28;20432;-71
2022/08/23 00:51:21;;;;;;;16.23;5.63;;;18.50;99.90;;;;;;5035312;28;20045;-71
2022/08/23 00:53:51;;;;;;;12.57;5.23;;;18.40;99.90;;;;;;5035556;28;20057;-71
2022/08/23 00:56:19;;;;;;;13.23;5.07;;;18.40;99.90;;;;;;5035282;28;20041;-71
2022/08/23 00:58:45;;;;;;;11.67;5.23;;;18.40;99.90;;;;;;5035157;28;20099;-69
2022/08/23 01:01:12;;;;;;;9.93;4.97;;;18.40;99.90;;;;;;5035164;28;20050;-69
2022/08/23 01:03:42;;;;;;;12.83;5.53;;;18.40;99.90;;;;;;5035729;28;20110;-69
2022/08/23 01:06:26;;;;;;;11.53;5.33;;;18.40;99.90;;;;;;5035217;28;20038;-69
2022/08/23 01:09:04;;;;;;;11.53;5.27;;;18.40;99.90;;;;;;5035486;28;20049;-68
2022/08/23 01:11:37;;;;;;;14.07;5.93;;;18.40;99.90;;;;;;5034939;28;20103;-69
2022/08/23 01:14:12;;;;;;;12.63;5.77;;;18.40;99.90;;;;;;5034881;28;20084;-69
2022/08/23 01:16:59;;;;;;;10.18;4.65;;;18.40;99.90;;;;;;5035663;28;20362;-69
2022/08/23 01:19:36;;;;;;;10.83;5.60;;;18.40;99.90;;;;;;5034761;28;20382;-68
2022/08/23 01:22:18;;;;;;;13.70;5.60;;;18.40;99.90;;;;;;5034820;28;20060;-69
2022/08/23 01:24:45;;;;;;;11.60;5.23;;;18.40;99.90;;;;;;5034962;28;20405;-69
2022/08/23 01:27:11;;;;;;;11.00;5.40;;;18.40;99.90;;;;;;5034489;28;20048;-69
2022/08/23 01:29:39;;;;;;;13.83;5.87;;;18.30;99.90;;;;;;5035105;28;20056;-69
2022/08/23 01:32:07;;;;;;;9.90;5.17;;;18.30;99.90;;;;;;5035311;28;20140;-68
2022/08/23 01:34:33;;;;;;;13.73;5.80;;;18.30;99.90;;;;;;5034483;28;20087;-68
2022/08/23 01:37:00;;;;;;;12.83;5.20;;;18.20;99.90;;;;;;5017437;28;20084;-68
2022/08/23 01:39:26;;;;;;;10.00;5.90;;;18.10;99.90;;;;;;5035125;28;20068;-68
2022/08/23 01:41:51;;;;;;;9.23;5.27;;;18.20;99.90;;;;;;5034351;28;20497;-68
2022/08/23 01:44:17;;;;;;;13.83;5.50;;;18.10;99.90;;;;;;5034552;28;20546;-68
2022/08/23 01:46:45;;;;;;;10.50;5.63;;;18.10;99.90;;;;;;5034187;28;20161;-68
2022/08/23 01:49:11;;;;;;;12.37;5.67;;;18.10;99.90;;;;;;5034167;28;20061;-69
2022/08/23 01:51:37;;;;;;;12.67;5.67;;;18.10;99.90;;;;;;5034200;28;20060;-68
2022/08/23 01:54:03;;;;;;;10.80;5.80;;;18.10;99.90;;;;;;5034069;28;20037;-68
2022/08/23 01:56:31;;;;;;;11.33;5.77;;;18.20;99.90;;;;;;5034617;28;20076;-68
2022/08/23 01:58:57;;;;;;;11.40;5.53;;;18.20;99.90;;;;;;5034790;28;20045;-69
2022/08/23 02:01:23;;;;;;;10.70;5.90;;;18.20;99.90;;;;;;5034009;28;20370;-68
2022/08/23 02:03:49;;;;;;;12.47;6.27;;;18.20;99.90;;;;;;5034459;28;20053;-68
2022/08/23 02:06:14;;;;;;;13.60;6.67;;;18.20;99.90;;;;;;5034591;28;20045;-68
2022/08/23 02:11:26;;;;;;;15.30;6.90;;;18.10;99.90;;;;;;5034594;28;20049;-68
2022/08/23 02:13:53;;;;;;;12.50;7.27;;;18.00;99.90;;;;;;5034244;28;20429;-68
2022/08/23 02:16:34;;;;;;;13.93;6.67;;;18.00;99.90;;;;;;5034007;28;20109;-68
2022/08/23 02:19:01;;;;;;;13.00;6.87;;;18.00;99.90;;;;;;5033644;28;20509;-68
2022/08/23 02:21:31;;;;;;;13.43;7.87;;;18.00;99.90;;;;;;5033727;28;20103;-68
2022/08/23 02:24:18;;;;;;;16.17;7.90;;;18.00;99.90;;;;;;5033616;28;20136;-68
2022/08/23 02:26:47;;;;;;;12.73;7.07;;;18.00;99.90;;;;;;5033457;28;20038;-68
2022/08/23 02:29:15;;;;;;;13.57;6.97;;;18.00;99.90;;;;;;5033567;28;20045;-68
2022/08/23 02:31:43;;;;;;;13.50;7.40;;;17.90;99.90;;;;;;5033592;28;20085;-68
2022/08/23 02:34:10;;;;;;;15.43;8.33;;;17.90;99.90;;;;;;5033731;28;20121;-68
2022/08/23 02:36:36;;;;;;;12.97;8.20;;;17.90;99.90;;;;;;5033512;28;20130;-68
2022/08/23 02:39:04;;;;;;;12.43;7.77;;;17.90;99.90;;;;;;5016333;28;20375;-69
2022/08/23 02:41:30;;;;;;;14.07;8.13;;;17.90;99.90;;;;;;5033799;28;20051;-68
2022/08/23 02:43:56;;;;;;;11.33;7.57;;;17.90;99.90;;;;;;5033351;28;20081;-68
2022/08/23 02:46:22;;;;;;;11.73;8.07;;;17.90;99.90;;;;;;5033311;28;20053;-68
2022/08/23 02:48:48;;;;;;;12.80;8.23;;;17.90;99.90;;;;;;5033168;28;20053;-69
2022/08/23 02:51:16;;;;;;;12.30;8.40;;;17.80;99.90;;;;;;5033324;28;20045;-68
2022/08/23 02:53:42;;;;;;;11.43;8.13;;;17.70;99.90;;;;;;5033279;28;20107;-68
2022/08/23 02:56:08;;;;;;;13.37;7.87;;;17.80;99.90;;;;;;5033756;28;20065;-68
2022/08/23 02:58:34;;;;;;;14.23;8.47;;;17.80;99.90;;;;;;5033526;28;20038;-68
2022/08/23 03:01:01;;;;;;;15.07;8.60;;;17.80;99.90;;;;;;5034637;28;20509;-69
2022/08/23 03:03:27;;;;;;;12.93;7.83;;;17.80;99.90;;;;;;5037301;28;20045;-68
2022/08/23 03:05:54;;;;;;;15.70;8.53;;;17.70;99.90;;;;;;5037170;28;20111;-69
2022/08/23 03:08:20;;;;;;;12.13;8.00;;;17.80;99.90;;;;;;5037991;28;20041;-68
2022/08/23 03:10:48;;;;;;;13.83;8.97;;;17.80;99.90;;;;;;5020199;28;20050;-68
2022/08/23 03:13:14;;;;;;;15.60;8.57;;;17.80;99.90;;;;;;5037112;28;20045;-69
2022/08/23 03:15:40;;;;;;;10.73;8.20;;;17.80;99.90;;;;;;5037072;28;20052;-68
2022/08/23 03:18:07;;;;;;;13.20;8.37;;;17.70;99.90;;;;;;5036751;28;20568;-68
2022/08/23 03:20:33;;;;;;;12.13;9.00;;;17.70;99.90;;;;;;5037004;28;20053;-68
2022/08/23 03:23:00;;;;;;;15.27;9.20;;;17.70;99.90;;;;;;5020311;28;20045;-68
2022/08/23 03:25:26;;;;;;;14.97;8.57;;;17.60;99.90;;;;;;5037430;28;20048;-68
2022/08/23 03:27:52;;;;;;;13.60;8.67;;;17.60;99.90;;;;;;5036827;28;20041;-69
2022/08/23 03:30:17;;;;;;;15.67;9.33;;;17.60;99.90;;;;;;5037162;28;20362;-68
2022/08/23 03:32:43;;;;;;;12.30;8.30;;;17.60;99.90;;;;;;5037019;28;20053;-68
2022/08/23 03:35:09;;;;;;;12.83;8.97;;;17.60;99.90;;;;;;5036765;28;20041;-68
2022/08/23 03:37:35;;;;;;;15.33;9.17;;;17.60;99.90;;;;;;5036710;28;20042;-68
2022/08/23 03:40:04;;;;;;;12.97;8.90;;;17.60;99.90;;;;;;5019182;28;20054;-68
2022/08/23 03:42:30;;;;;;;15.43;10.20;;;17.60;99.90;;;;;;5036641;28;20055;-68
2022/08/23 03:44:55;;;;;;;12.30;9.67;;;17.60;99.90;;;;;;5036630;28;20049;-69
2022/08/23 03:47:21;;;;;;;15.13;10.00;;;17.50;99.90;;;;;;5036404;28;20077;-68
2022/08/23 03:49:47;;;;;;;15.10;9.97;;;17.60;99.90;;;;;;5036350;28;20057;-68
2022/08/23 03:52:13;;;;;;;13.60;9.63;;;17.50;99.90;;;;;;5036425;28;20448;-68
2022/08/23 03:54:39;;;;;;;17.80;9.87;;;17.50;99.90;;;;;;5036909;28;20045;-68
2022/08/23 03:57:08;;;;;;;14.97;9.57;;;17.50;99.90;;;;;;5036295;28;20045;-68
2022/08/23 03:59:37;;;;;;;13.13;9.13;;;17.40;99.90;;;;;;5035970;28;20526;-68
2022/08/23 04:02:02;;;;;;;13.67;9.73;;;17.40;99.90;;;;;;5036446;28;20055;-68
2022/08/23 04:04:28;;;;;;;12.27;9.90;;;17.40;99.90;;;;;;5036747;28;20456;-68
2022/08/23 04:06:55;;;;;;;12.63;9.53;;;17.30;99.90;;;;;;5036084;28;20046;-68
2022/08/23 04:09:21;;;;;;;11.47;9.10;;;17.40;99.90;;;;;;5036618;28;20088;-68
2022/08/23 04:11:47;;;;;;;12.47;10.10;;;17.30;99.90;;;;;;5035830;28;20099;-68
2022/08/23 04:14:13;;;;;;;15.50;10.13;;;17.30;99.90;;;;;;5036004;28;20045;-68
2022/08/23 04:16:39;;;;;;;10.37;9.17;;;17.30;99.90;;;;;;5035924;28;20128;-68
2022/08/23 04:19:12;;;;;;;13.57;10.30;;;17.30;99.90;;;;;;5035922;28;20052;-68
2022/08/23 04:21:40;;;;;;;16.10;11.57;;;17.30;99.90;;;;;;5035862;28;20045;-68
2022/08/23 04:24:06;;;;;;;12.77;9.60;;;17.30;99.90;;;;;;5036581;28;20050;-68
2022/08/23 04:26:32;;;;;;;14.03;10.20;;;17.20;99.90;;;;;;5035736;28;20393;-68
2022/08/23 04:28:58;;;;;;;13.67;10.63;;;17.30;99.90;;;;;;5035797;28;20064;-68
2022/08/23 04:31:27;;;;;;;12.17;10.17;;;17.30;99.90;;;;;;5035740;28;20474;-68
2022/08/23 04:33:55;;;;;;;13.67;10.47;;;17.30;99.90;;;;;;5035609;28;20045;-68
2022/08/23 04:36:22;;;;;;;13.53;10.17;;;17.40;99.90;;;;;;5035641;28;20049;-68
2022/08/23 04:38:47;;;;;;;15.20;9.80;;;17.30;99.90;;;;;;5035606;28;20049;-68
2022/08/23 04:43:58;;;;;;;12.30;9.90;;;17.40;99.90;;;;;;5036059;28;20450;-69
2022/08/23 04:46:24;;;;;;;15.13;9.57;;;17.40;99.90;;;;;;5035838;28;20042;-68
2022/08/23 04:48:50;;;;;;;12.43;10.60;;;17.40;99.90;;;;;;5036081;28;20136;-68
2022/08/23 04:51:16;;;;;;;15.07;10.13;;;17.40;99.90;;;;;;5035270;28;20048;-68
2022/08/23 04:53:42;;;;;;;12.23;9.63;;;17.40;99.90;;;;;;5017622;28;20049;-68
2022/08/23 04:56:08;;;;;;;15.90;10.33;;;17.50;99.90;;;;;;5018170;28;20336;-68
2022/08/23 04:58:37;;;;;;;12.27;9.77;;;17.40;99.90;;;;;;5034612;28;20477;-68
2022/08/23 05:01:06;;;;;;;12.77;9.63;;;17.40;99.90;;;;;;5035114;28;20053;-69
2022/08/23 05:03:33;;;;;;;11.77;10.03;;;17.40;99.90;;;;;;5035129;28;20108;-68
2022/08/23 05:06:00;;;;;;;13.83;11.03;;;17.40;99.90;;;;;;5035396;28;20041;-68
2022/08/23 05:08:26;;;;;;;14.53;10.10;;;17.30;99.90;;;;;;5034997;28;20046;-68
2022/08/23 05:10:52;;;;;;;13.67;10.53;;;17.40;99.90;;;;;;5034936;28;20091;-68
2022/08/23 05:13:18;;;;;;;14.33;10.40;;;17.40;99.90;;;;;;5034876;28;20083;-68
2022/08/23 05:15:44;;;;;;;15.80;11.43;;;17.30;99.90;;;;;;5034916;28;20092;-68
2022/08/23 05:18:11;;;;;;;16.53;11.63;;;17.30;99.90;;;;;;5017283;28;20156;-69
2022/08/23 05:20:38;;;;;;;15.63;11.57;;;17.30;99.90;;;;;;5034744;28;20045;-68
2022/08/23 05:23:04;;;;;;;15.60;11.37;;;17.30;99.90;;;;;;5033887;28;20489;-68
2022/08/23 05:25:48;;;;;;;16.90;11.73;;;17.40;99.90;;;;;;5034522;28;20094;-68
2022/08/23 05:28:34;;;;;;;13.80;11.47;;;17.40;99.90;;;;;;5034647;28;20056;-69
2022/08/23 05:31:07;;;;;;;12.47;10.77;;;17.40;99.90;;;;;;5034849;28;20053;-68
2022/08/23 05:33:34;;;;;;;12.33;11.00;;;17.50;99.90;;;;;;5034579;28;20132;-69
2022/08/23 05:36:00;;;;;;;17.43;11.47;;;17.50;99.90;;;;;;5034439;28;20072;-71
2022/08/23 05:38:27;;;;;;;14.33;11.20;;;17.60;99.90;;;;;;5034362;28;20046;-71
2022/08/23 05:40:54;;;;;;;14.40;11.13;;;17.70;99.90;;;;;;5034363;28;20049;-70
2022/08/23 05:43:20;;;;;;;15.63;12.17;;;17.70;99.90;;;;;;5034863;28;20049;-71
2022/08/23 05:45:47;;;;;;;16.20;13.00;;;17.80;99.90;;;;;;5016272;28;20509;-71
2022/08/23 05:48:14;;;;;;;14.60;12.03;;;17.90;99.90;;;;;;5033649;28;20520;-71
2022/08/23 05:50:40;;;;;;;17.27;12.20;;;18.00;99.90;;;;;;5016556;28;20057;-69
2022/08/23 05:53:09;;;;;;;13.57;11.77;;;18.00;99.90;;;;;;5034567;28;20053;-70
2022/08/23 05:55:35;;;;;;;16.63;12.67;;;18.00;99.90;;;;;;5034466;28;20060;-70
2022/08/23 05:58:01;;;;;;;16.77;12.27;;;18.00;99.90;;;;;;5034021;28;20046;-70
2022/08/23 06:00:27;;;;;;;15.83;12.77;;;18.00;99.90;;;;;;5000295;28;20125;-70
2022/08/23 06:02:53;;;;;;;17.17;12.50;;;18.00;99.90;;;;;;5033927;28;20493;-70
2022/08/23 06:05:20;;;;;;;16.03;12.53;;;18.10;99.90;;;;;;5033913;28;20128;-70
2022/08/23 06:07:47;;;;;;;15.10;12.20;;;18.40;99.90;;;;;;5034371;28;20128;-70
2022/08/23 06:10:12;;;;;;;18.13;12.27;;;18.50;99.90;;;;;;5033827;28;20111;-72
2022/08/23 06:12:38;;;;;;;14.97;11.60;;;18.80;99.90;;;;;;5033850;28;20053;-72
2022/08/23 06:15:04;;;;;;;14.93;11.10;;;19.50;99.90;;;;;;5033480;28;20041;-79
2022/08/23 06:17:30;;;;;;;12.97;9.67;;;20.50;99.90;;;;;;5033695;28;20052;-70
2022/08/23 06:19:56;;;;;;;14.77;9.80;;;21.50;99.90;;;;;;5033374;28;20552;-69
2022/08/23 06:22:22;;;;;;;12.13;8.67;;;22.60;99.90;;;;;;5033548;28;20089;-70
2022/08/23 06:24:48;;;;;;;12.33;8.67;;;23.50;99.90;;;;;;5015933;28;20041;-70
2022/08/23 06:27:14;;;;;;;11.33;8.57;;;24.30;99.90;;;;;;5033444;28;20037;-71
2022/08/23 06:29:39;;;;;;;11.93;7.77;;;25.10;99.90;;;;;;5033807;28;20053;-68
2022/08/23 06:32:06;;;;;;;10.83;8.20;;;25.50;99.90;;;;;;5033640;28;20397;-68
2022/08/23 06:34:36;;;;;;;12.33;7.77;;;26.10;93.90;;;;;;5015842;28;20065;-68
2022/08/23 06:37:05;;;;;;;11.47;7.07;;;;;;;;;;5033031;28;20509;-67
2022/08/23 06:39:32;;;;;;;9.23;6.70;;;27.00;84.70;;;;;;5033402;28;20497;-68
2022/08/23 06:42:01;;;;;;;8.03;6.70;;;27.50;82.10;;;;;;5033428;28;20054;-68
2022/08/23 06:44:27;;;;;;;11.70;7.77;;;27.60;92.10;;;;;;5033369;28;20132;-68
2022/08/23 06:46:56;;;;;;;9.53;7.00;;;;;;;;;;5033182;28;20037;-68
2022/08/23 06:49:22;;;;;;;9.03;6.40;;;;;;;;;;5033457;28;20492;-68
2022/08/23 06:51:51;;;;;;;8.23;5.90;;;28.50;70.90;;;;;;5033322;28;20458;-68
2022/08/23 06:54:20;;;;;;;10.60;6.10;;;28.70;76.60;;;;;;5033301;28;20053;-69
2022/08/23 06:56:47;;;;;;;10.17;6.73;;;29.00;75.70;;;;;;5033467;28;20120;-68
2022/08/23 06:59:13;;;;;;;9.07;6.20;;;29.40;72.10;;;;;;5015608;28;20049;-68
2022/08/23 07:01:44;;;;;;;7.93;5.65;;;29.60;69.90;;;;;;5033172;28;20041;-68
2022/08/23 07:04:12;;;;;;;10.63;6.22;;;30.00;61.30;;;;;;5032903;28;20128;-68
2022/08/23 07:06:38;;;;;;;8.70;5.60;;;30.20;94.40;;;;;;5015469;28;20038;-68
2022/08/23 07:09:04;;;;;;;11.45;6.30;;;30.60;63.80;;;;;;5033137;28;20042;-68
2022/08/23 07:11:31;;;;;;;9.35;5.53;;;31.10;61.30;;;;;;5015667;28;20509;-68
2022/08/23 07:13:59;;;;;;;10.23;6.05;;;31.30;60.40;;;;;;5033091;28;20053;-68
2022/08/23 07:16:26;;;;;;;11.57;5.60;;;;;;;;;;5033635;28;20444;-69
2022/08/23 07:18:54;;;;;;;8.20;5.05;;;31.80;56.60;;;;;;5033122;28;20041;-68
2022/08/23 07:21:19;;;;;;;9.32;5.63;;;32.00;55.60;;;;;;5032982;28;20049;-69
2022/08/23 07:23:45;;;;;;;8.35;5.25;;;31.90;55.20;;;;;;5033306;28;20049;-69
2022/08/23 07:26:12;;;;;;;8.05;5.22;;;;;;;;;;5032854;28;20098;-68
2022/08/23 07:28:38;;;;;;;8.45;4.10;;;;;;;;;;5032973;28;20046;-68
2022/08/23 07:31:18;;;;;;;7.70;4.43;;;33.30;48.80;;;;;;5033008;28;20054;-68
2022/08/23 07:33:44;;;;;;;7.22;3.92;;;33.50;50.70;;;;;;5032988;28;20049;-69
2022/08/23 07:36:15;;;;;;;6.47;4.00;;;33.60;50.40;;;;;;5015403;28;20045;-69
2022/08/23 07:38:41;;;;;;;6.45;3.83;;;33.80;49.00;;;;;;5032941;28;20124;-69
2022/08/23 07:41:07;;;;;;;8.48;4.72;;;34.00;45.80;;;;;;5033388;28;20136;-69
2022/08/23 07:43:33;;;;;;;7.50;4.07;;;;;;;;;;5032825;28;20128;-69
2022/08/23 07:46:00;;;;;;;6.55;4.00;;;34.60;44.00;;;;;;5032741;28;20057;-68
2022/08/23 07:48:26;;;;;;;7.43;4.10;;;;;;;;;;5036033;28;20045;-69
2022/08/23 07:50:54;;;;;;;8.10;4.18;;;35.00;45.30;;;;;;5036501;28;20037;-68
2022/08/23 07:53:20;;;;;;;6.88;4.25;;;35.30;45.10;;;;;;5036497;28;20132;-69
2022/08/23 07:55:46;;;;;;;7.93;3.78;;;35.00;44.10;;;;;;5036391;28;20453;-68
2022/08/23 07:58:12;;;;;;;6.35;3.45;;;34.10;44.80;;;;;;5036476;28;20153;-68
2022/08/23 08:00:37;;;;;;;7.38;3.55;;;33.30;46.00;;;;;;5036496;28;20047;-68
2022/08/23 08:03:03;;;;;;;6.60;3.70;;;32.50;46.40;;;;;;5019235;28;20049;-68
2022/08/23 08:05:33;;;;;;;6.95;3.72;;;31.80;46.90;;;;;;5019526;28;20124;-68
2022/08/23 08:07:58;;;;;;;7.82;3.72;;;31.00;48.00;;;;;;5036146;28;20041;-68
2022/08/23 08:10:24;;;;;;;7.35;3.60;;;30.50;49.10;;;;;;5036182;28;20099;-69
2022/08/23 08:12:50;;;;;;;8.65;4.70;;;29.90;50.10;;;;;;5036058;28;20064;-68
2022/08/23 08:15:17;;;;;;;8.40;3.85;;;29.30;50.50;;;;;;5036037;28;20089;-68
2022/08/23 08:17:45;;;;;;;5.72;3.42;;;28.80;51.60;;;;;;5036012;28;20041;-68
2022/08/23 08:20:11;;;;;;;9.48;3.60;;;28.40;52.70;;;;;;5018798;28;20110;-68
2022/08/23 08:22:36;;;;;;;7.05;3.47;;;28.20;53.60;;;;;;5035953;28;20128;-68
2022/08/23 08:25:03;;;;;;;8.40;3.63;;;28.10;54.70;;;;;;5035867;28;20053;-68
2022/08/23 08:27:29;;;;;;;7.20;4.03;;;;;;;;;;5035750;28;20084;-68
2022/08/23 08:29:55;;;;;;;6.03;3.45;;;;;;;;;;5035776;28;20041;-68
2022/08/23 08:32:20;;;;;;;7.88;4.18;;;28.10;91.70;;;;;;5035434;28;20571;-68
2022/08/23 08:34:46;;;;;;;6.53;3.25;;;27.70;56.60;;;;;;5018340;28;20077;-68
2022/08/23 08:37:12;;;;;;;7.05;4.00;;;27.70;57.70;;;;;;5018024;28;20512;-68
2022/08/23 08:39:44;;;;;;;8.30;3.90;;;27.60;58.20;;;;;;5035591;28;20041;-69
2022/08/23 08:42:47;;;;;;;5.85;3.60;;;27.60;58.90;;;;;;5036353;28;20049;-69
2022/08/23 08:45:26;;;;;;;8.10;3.60;;;27.50;59.90;;;;;;5036329;28;20420;-69
2022/08/23 08:48:07;;;;;;;8.45;4.13;;;27.60;60.10;;;;;;5035870;28;20042;-69
2022/08/23 08:50:40;;;;;;;9.70;4.30;;;27.70;60.20;;;;;;5036199;28;20065;-69
2022/08/23 08:53:17;;;;;;;6.55;3.50;;;27.60;60.80;;;;;;5035710;28;20052;-69
2022/08/23 08:55:54;;;;;;;7.80;4.03;;;27.60;60.80;;;;;;5035530;28;20049;-69
2022/08/23 08:58:46;;;;;;;7.63;3.80;;;27.60;61.60;;;;;;5034332;28;20102;-69
2022/08/23 09:01:15;;;;;;;8.07;4.07;;;27.70;62.70;;;;;;5035556;28;20144;-69
2022/08/23 09:03:41;;;;;;;10.55;4.15;;;27.80;63.00;;;;;;5035093;28;20049;-69
2022/08/23 09:06:34;;;;;;;16.48;4.00;;;27.80;63.40;;;;;;5017447;28;20045;-69
2022/08/23 09:09:29;;;;;;;6.80;3.40;;;27.90;63.70;;;;;;5020586;28;20049;-69
2022/08/23 09:12:29;;;;;;;8.73;3.65;;;27.90;62.90;;;;;;5035294;28;20394;-69
2022/08/23 09:15:10;;;;;;;9.38;3.50;;;27.90;61.80;;;;;;5034967;28;20053;-69
2022/08/23 09:17:43;;;;;;;10.85;3.63;;;27.90;61.20;;;;;;5034886;28;20053;-69
2022/08/23 09:20:13;;;;;;;7.57;3.05;;;27.90;60.60;;;;;;5035389;28;20100;-69
2022/08/23 09:22:45;;;;;;;7.75;3.50;;;27.80;61.10;;;;;;5034787;28;20050;-69
2022/08/23 09:25:13;;;;;;;9.57;3.47;;;27.80;60.90;;;;;;5034845;28;20544;-69
2022/08/23 09:27:42;;;;;;;8.77;4.15;;;27.80;61.00;;;;;;5034640;28;20038;-69
2022/08/23 09:30:10;;;;;;;8.70;3.70;;;27.80;61.50;;;;;;5016964;28;20068;-69
2022/08/23 09:32:40;;;;;;;10.25;3.65;;;27.80;61.70;;;;;;5034509;28;20383;-69
2022/08/23 09:35:17;;;;;;;8.00;3.35;;;27.80;62.60;;;;;;5034574;28;20049;-69
2022/08/23 09:37:52;;;;;;;6.97;3.17;;;27.90;62.60;;;;;;5034549;28;20049;-69
2022/08/23 09:40:37;;;;;;;12.68;4.40;;;28.00;63.50;;;;;;5034464;28;20436;-69
2022/08/23 09:43:25;;;;;;;;;;;28.10;62.80;;;;;;5034843;28;20402;-69
2022/08/23 09:45:51;;;;;;;8.27;3.30;;;28.00;63.00;;;;;;5034866;28;20002;-69
2022/08/23 09:48:32;;;;;;;7.32;3.75;;;27.90;62.40;;;;;;5016390;28;20057;-68
2022/08/23 09:51:04;;;;;;;8.27;4.25;;;27.90;63.40;;;;;;5034846;28;20045;-69
2022/08/23 09:53:30;;;;;;;10.13;4.15;;;27.70;62.90;;;;;;5035039;28;20049;-69
2022/08/23 09:56:10;;;;;;;8.88;4.35;;;27.50;62.30;;;;;;5034015;28;20363;-69
2022/08/23 09:58:39;;;;;;;10.38;3.65;;;27.50;62.20;;;;;;5034107;28;20099;-69
2022/08/23 10:01:17;;;;;;;15.05;3.90;;;27.30;63.40;;;;;;5034580;28;20053;-69
2022/08/23 10:03:45;;;;;;;10.52;4.13;;;27.30;64.40;;;;;;5034846;28;20413;-69
2022/08/23 10:06:14;;;;;;;14.23;3.80;;;27.20;63.80;;;;;;5016469;28;20077;-69
2022/08/23 10:08:53;;;;;;;7.35;3.20;;;27.20;63.70;;;;;;5034417;28;20481;-69
2022/08/23 10:11:27;;;;;;;6.97;3.90;;;27.20;64.30;;;;;;5016271;28;20045;-69
2022/08/23 10:13:53;;;;;;;9.10;3.60;;;27.20;64.70;;;;;;5033844;28;20053;-69
2022/08/23 10:16:40;;;;;;;9.27;4.03;;;27.30;64.60;;;;;;5033787;28;20067;-69
2022/08/23 10:19:28;;;;;;;7.83;3.40;;;27.30;64.80;;;;;;5034610;28;20115;-69
2022/08/23 10:22:07;;;;;;;7.77;3.60;;;27.30;65.50;;;;;;5034024;28;20123;-69
2022/08/23 10:24:51;;;;;;;10.03;3.40;;;27.30;65.80;;;;;;5033672;28;20497;-68
2022/08/23 10:30:53;;;;;;;9.73;4.33;;;27.40;66.40;;;;;;5033571;28;20049;-69
2022/08/23 10:33:31;;;;;;;12.17;3.80;;;27.40;66.80;;;;;;5033647;28;20045;-69
2022/08/23 10:36:11;;;;;;;9.93;3.73;;;27.40;66.80;;;;;;5033520;28;20470;-69
2022/08/23 10:38:49;;;;;;;8.90;3.43;;;27.50;67.20;;;;;;5033562;28;20051;-69
2022/08/23 10:41:21;;;;;;;7.73;3.33;;;27.50;67.40;;;;;;5034026;28;20370;-69
2022/08/23 10:43:59;;;;;;;6.07;3.40;;;27.50;66.20;;;;;;5033400;28;20131;-69
2022/08/23 10:46:28;;;;;;;9.80;3.53;;;27.50;65.30;;;;;;5033336;28;20094;-69
2022/08/23 10:48:57;;;;;;;7.40;2.70;;;27.50;65.70;;;;;;5033302;28;20057;-69
2022/08/23 10:51:28;;;;;;;6.73;3.00;;;27.50;64.80;;;;;;5033039;28;20547;-69
2022/08/23 10:54:02;;;;;;;7.07;2.83;;;27.40;64.00;;;;;;5033268;28;20485;-69
2022/08/23 10:56:28;;;;;;;7.53;3.43;;;27.40;62.80;;;;;;5033313;28;20056;-69
2022/08/23 10:59:09;;;;;;;6.90;3.20;;;27.30;62.10;;;;;;5033347;28;20045;-69
2022/08/23 11:01:54;;;;;;;9.10;3.33;;;27.30;60.70;;;;;;5034107;28;20381;-69
2022/08/23 11:04:35;;;;;;;7.73;3.23;;;27.30;61.10;;;;;;5033605;28;20053;-69
2022/08/23 11:07:33;;;;;;;7.37;2.60;;;27.30;61.90;;;;;;5033739;28;20042;-69
2022/08/23 11:10:16;;;;;;;8.30;3.37;;;27.40;62.30;;;;;;5033009;28;20054;-69
2022/08/23 11:13:24;;;;;;;10.30;2.90;;;27.40;61.30;;;;;;5033729;28;20124;-69
2022/08/23 11:16:24;;;;;;;9.70;3.23;;;27.40;61.40;;;;;;4937083;29;20130;-69
2022/08/23 11:18:50;;;;;;;6.53;2.73;;;27.40;62.20;;;;;;5014940;28;20061;-69
2022/08/23 11:21:16;;;;;;;8.87;3.40;;;27.40;61.80;;;;;;5015592;28;20046;-69
2022/08/23 11:23:45;;;;;;;11.47;3.13;;;27.40;61.10;;;;;;5036761;28;20045;-69
2022/08/23 11:26:38;;;;;;;9.17;2.80;;;27.40;61.30;;;;;;5036930;28;20468;-69
2022/08/23 11:29:09;;;;;;;7.03;2.67;;;27.40;61.90;;;;;;5036834;28;20049;-69
2022/08/23 11:31:58;;;;;;;7.60;2.50;;;27.40;58.40;;;;;;5036933;28;20049;-69
2022/08/23 11:34:44;;;;;;;6.03;2.93;;;27.40;54.60;;;;;;5037445;28;20057;-69
2022/08/23 11:37:18;;;;;;;7.70;2.57;;;27.40;56.80;;;;;;5022679;28;20049;-69
2022/08/23 11:39:56;;;;;;;8.73;2.57;;;27.50;55.90;;;;;;5036775;28;20049;-69
2022/08/23 11:42:38;;;;;;;6.37;2.30;;;27.50;55.50;;;;;;5037210;28;20049;-69
2022/08/23 11:45:26;;;;;;;8.07;2.43;;;27.50;55.50;;;;;;5036407;28;20049;-69
2022/08/23 11:48:12;;;;;;;6.57;3.07;;;27.60;54.50;;;;;;5036747;28;20473;-68
2022/08/23 11:50:50;;;;;;;5.90;2.40;;;27.50;55.00;;;;;;5037142;28;20041;-69
2022/08/23 11:53:42;;;;;;;9.23;2.60;;;27.50;55.00;;;;;;5037321;28;20050;-68
2022/08/23 11:56:10;;;;;;;6.37;2.33;;;27.50;54.90;;;;;;5005648;28;20135;-69
2022/08/23 11:58:48;;;;;;;7.37;2.80;;;27.50;55.30;;;;;;5036456;28;20132;-68
2022/08/23 12:01:14;;;;;;;8.40;2.93;;;27.50;55.10;;;;;;5018670;28;20046;-69
2022/08/23 12:03:57;;;;;;;11.70;2.87;;;27.50;55.40;;;;;;5036341;28;20048;-69
2022/08/23 12:06:43;;;;;;;6.70;2.43;;;27.50;56.20;;;;;;5036182;28;20486;-69
2022/08/23 12:09:21;;;;;;;5.57;2.37;;;27.50;56.00;;;;;;5036264;28;20120;-69
2022/08/23 12:11:55;;;;;;;8.63;3.03;;;27.60;56.60;;;;;;5036409;28;20107;-68
2022/08/23 12:14:30;;;;;;;7.50;3.00;;;27.60;55.70;;;;;;5035841;28;20045;-69
2022/08/23 12:17:25;;;;;;;8.83;2.73;;;27.60;56.20;;;;;;5036045;28;20140;-69
2022/08/23 12:20:09;;;;;;;6.93;2.97;;;27.60;56.00;;;;;;5018975;28;20501;-69
2022/08/23 12:22:57;;;;;;;9.93;3.00;;;27.60;55.30;;;;;;5036026;28;20490;-68
2022/08/23 12:25:29;;;;;;;7.20;2.70;;;27.60;55.40;;;;;;5018259;28;20128;-69
2022/08/23 12:28:02;;;;;;;7.50;2.93;;;27.70;55.30;;;;;;5018146;28;20623;-69
2022/08/23 12:30:58;;;;;;;9.40;3.13;;;27.70;55.20;;;;;;5017922;28;20486;-69
2022/08/23 12:33:54;;;;;;;7.70;2.83;;;27.70;55.50;;;;;;5036017;28;20604;-69
2022/08/23 12:36:43;;;;;;;10.43;2.47;;;27.60;55.60;;;;;;5035476;28;20051;-69
2022/08/23 12:39:28;;;;;;;8.67;2.70;;;27.70;56.20;;;;;;5036216;28;20085;-69
2022/08/23 12:42:01;;;;;;;9.65;3.00;;;27.70;55.90;;;;;;5035338;28;20516;-69
2022/08/23 12:44:29;;;;;;;12.80;3.38;;;27.70;55.50;;;;;;5035634;28;20056;-68
2022/08/23 12:46:55;;;;;;;7.33;2.60;;;27.70;55.40;;;;;;5035386;28;20037;-68
2022/08/23 12:49:34;;;;;;;8.53;2.83;;;27.60;55.50;;;;;;5035371;28;20057;-68
2022/08/23 12:52:05;;;;;;;14.03;3.03;;;27.60;56.10;;;;;;5035743;28;20046;-68
2022/08/23 12:54:36;;;;;;;10.57;3.23;;;27.60;56.30;;;;;;5035931;28;20041;-68
2022/08/23 12:57:08;;;;;;;10.37;3.80;;;27.60;56.10;;;;;;5036416;28;20076;-68
2022/08/23 12:59:44;;;;;;;7.50;3.20;;;27.60;56.40;;;;;;5035297;28;20049;-68
2022/08/23 13:02:40;;;;;;;10.03;3.03;;;27.70;56.80;;;;;;5035188;28;20382;-68
2022/08/23 13:05:12;;;;;;;7.23;2.70;;;27.70;56.60;;;;;;5018474;28;20057;-68
2022/08/23 13:07:39;;;;;;;10.97;3.27;;;27.80;56.50;;;;;;5035591;28;20052;-68
2022/08/23 13:10:07;;;;;;;7.30;2.57;;;27.80;56.10;;;;;;5035056;28;20053;-68
2022/08/23 13:12:34;;;;;;;8.03;3.30;;;27.80;56.20;;;;;;5035035;28;20459;-68
2022/08/23 13:15:01;;;;;;;8.50;3.00;;;27.80;56.50;;;;;;5034952;28;20485;-68
2022/08/23 13:17:27;;;;;;;5.70;2.77;;;27.90;56.60;;;;;;5034905;28;20075;-68